createdAt,value
2022-12-11T00:00:09.291Z,26.90
2022-12-11T00:01:10.264Z,26.30
2022-12-11T00:02:09.276Z,25.50
2022-12-11T00:03:15.427Z,26.20
2022-12-11T00:04:10.237Z,25.80
2022-12-11T00:05:09.573Z,26.40
2022-12-11T00:06:10.210Z,25.40
2022-12-11T00:07:09.203Z,26.70
2022-12-11T00:08:09.203Z,21.50
2022-12-11T00:09:09.160Z,22.30
2022-12-11T00:10:09.152Z,22.80
2022-12-11T00:11:10.152Z,24.80
2022-12-11T00:12:09.143Z,25.80
2022-12-11T00:13:09.133Z,22.00
2022-12-11T00:14:09.114Z,25.50
2022-12-11T00:15:09.408Z,27.30
2022-12-11T00:16:09.175Z,26.50
2022-12-11T00:17:09.146Z,24.30
2022-12-11T00:18:09.063Z,26.00
2022-12-11T00:19:09.052Z,26.80
2022-12-11T00:20:09.050Z,22.80
2022-12-11T00:21:09.046Z,21.40
2022-12-11T00:22:09.011Z,21.40
2022-12-11T00:23:08.992Z,21.50
2022-12-11T00:24:08.985Z,24.80
2022-12-11T00:25:09.395Z,25.60
2022-12-11T00:26:08.966Z,25.50
2022-12-11T00:27:08.950Z,25.70
2022-12-11T00:28:08.943Z,25.00
2022-12-11T00:29:08.931Z,22.60
2022-12-11T00:30:08.912Z,22.40
2022-12-11T00:31:08.907Z,24.60
2022-12-11T00:32:08.925Z,23.00
2022-12-11T00:33:08.894Z,23.60
2022-12-11T00:34:08.862Z,25.40
2022-12-11T00:35:09.281Z,25.20
2022-12-11T00:36:08.832Z,24.70
2022-12-11T00:37:09.850Z,23.70
2022-12-11T00:38:08.797Z,26.00
2022-12-11T00:39:08.790Z,25.70
2022-12-11T00:40:08.787Z,25.90
2022-12-11T00:41:08.777Z,24.90
2022-12-11T00:42:08.753Z,23.80
2022-12-11T00:43:08.743Z,23.10
2022-12-11T00:44:08.741Z,21.60
2022-12-11T00:45:09.219Z,23.90
2022-12-11T00:46:08.810Z,25.90
2022-12-11T00:47:08.692Z,25.00
2022-12-11T00:48:08.663Z,25.30
2022-12-11T00:49:08.673Z,24.60
2022-12-11T00:50:08.651Z,27.00
2022-12-11T00:51:16.833Z,24.70
2022-12-11T00:52:08.614Z,26.50
2022-12-11T00:53:09.608Z,26.00
2022-12-11T00:54:08.607Z,25.10
2022-12-11T00:55:09.053Z,22.70
2022-12-11T00:56:08.598Z,21.20
2022-12-11T00:57:08.558Z,24.00
2022-12-11T00:58:08.543Z,24.60
2022-12-11T00:59:08.553Z,26.20
2022-12-11T01:00:08.520Z,25.70
2022-12-11T01:01:08.572Z,24.50
2022-12-11T01:02:08.501Z,27.60
2022-12-11T01:03:09.568Z,28.10
2022-12-11T01:04:09.480Z,26.90
2022-12-11T01:05:08.796Z,23.40
2022-12-11T01:06:08.456Z,25.60
2022-12-11T01:07:08.451Z,24.50
2022-12-11T01:08:08.457Z,26.50
2022-12-11T01:09:08.405Z,27.00
2022-12-11T01:10:08.499Z,25.60
2022-12-11T01:11:08.408Z,24.50
2022-12-11T01:12:09.373Z,27.50
2022-12-11T01:13:08.357Z,28.60
2022-12-11T01:14:08.366Z,26.40
2022-12-11T01:15:08.651Z,30.30
2022-12-11T01:16:09.329Z,30.00
2022-12-11T01:17:08.354Z,28.70
2022-12-11T01:18:08.304Z,27.70
2022-12-11T01:19:08.295Z,31.00
2022-12-11T01:20:08.279Z,29.30
2022-12-11T01:21:08.273Z,29.00
2022-12-11T01:22:08.248Z,27.90
2022-12-11T01:23:08.226Z,29.20
2022-12-11T01:24:09.213Z,27.90
2022-12-11T01:25:08.554Z,26.50
2022-12-11T01:26:08.199Z,28.80
2022-12-11T01:27:08.178Z,28.80
2022-12-11T01:28:08.175Z,28.10
2022-12-11T01:29:08.157Z,29.30
2022-12-11T01:30:08.140Z,27.90
2022-12-11T01:31:08.169Z,26.80
2022-12-11T01:32:08.125Z,27.80
2022-12-11T01:33:08.118Z,27.90
2022-12-11T01:34:08.099Z,28.70
2022-12-11T01:35:08.361Z,26.30
2022-12-11T01:36:08.105Z,27.60
2022-12-11T01:37:08.055Z,29.00
2022-12-11T01:38:08.068Z,27.70
2022-12-11T01:39:08.087Z,23.10
2022-12-11T01:40:08.094Z,27.20
2022-12-11T01:41:08.055Z,27.10
2022-12-11T01:42:07.996Z,29.90
2022-12-11T01:43:08.027Z,27.50
2022-12-11T01:44:08.027Z,25.10
2022-12-11T01:45:10.283Z,28.20
2022-12-11T01:46:08.021Z,28.50
2022-12-11T01:47:07.955Z,27.60
2022-12-11T01:48:07.952Z,28.10
2022-12-11T01:49:07.975Z,28.70
2022-12-11T01:50:07.955Z,24.20
2022-12-11T01:51:07.882Z,26.70
2022-12-11T01:52:07.882Z,28.40
2022-12-11T01:53:07.894Z,28.50
2022-12-11T01:54:07.896Z,29.30
2022-12-11T01:55:09.108Z,26.10
2022-12-11T01:56:07.845Z,29.60
2022-12-11T01:57:07.804Z,27.50
2022-12-11T01:58:07.838Z,29.10
2022-12-11T01:59:07.838Z,28.70
2022-12-11T02:00:07.756Z,30.00
2022-12-11T02:01:07.904Z,32.20
2022-12-11T02:02:07.890Z,29.00
2022-12-11T02:03:07.776Z,27.10
2022-12-11T02:04:07.759Z,28.40
2022-12-11T02:05:07.934Z,28.30
2022-12-11T02:06:07.796Z,31.30
2022-12-11T02:07:07.784Z,31.20
2022-12-11T02:08:07.728Z,27.90
2022-12-11T02:10:17.885Z,29.20
2022-12-11T02:11:17.972Z,28.40
2022-12-11T02:12:17.943Z,25.20
2022-12-11T02:13:17.837Z,29.30
2022-12-11T02:14:17.823Z,29.30
2022-12-11T02:15:38.824Z,30.40
2022-12-11T02:16:17.840Z,27.10
2022-12-11T02:17:17.821Z,31.70
2022-12-11T02:18:17.763Z,30.30
2022-12-11T02:19:17.775Z,28.90
2022-12-11T02:20:19.875Z,33.90
2022-12-11T02:21:17.843Z,32.90
2022-12-11T02:22:17.814Z,34.20
2022-12-11T02:23:17.722Z,30.20
2022-12-11T02:24:17.714Z,32.80
2022-12-11T02:25:17.743Z,31.50
2022-12-11T02:26:17.683Z,33.60
2022-12-11T02:27:17.685Z,32.60
2022-12-11T02:28:17.644Z,35.20
2022-12-11T02:29:17.661Z,32.70
2022-12-11T02:30:17.621Z,32.60
2022-12-11T02:31:17.652Z,25.90
2022-12-11T02:32:17.624Z,31.40
2022-12-11T02:33:17.586Z,29.70
2022-12-11T02:34:17.573Z,34.30
2022-12-11T02:35:17.560Z,34.70
2022-12-11T02:36:17.555Z,33.40
2022-12-11T02:37:18.535Z,33.70
2022-12-11T02:38:17.535Z,33.40
2022-12-11T02:39:17.545Z,36.80
2022-12-11T02:40:17.506Z,33.20
2022-12-11T02:41:17.494Z,33.80
2022-12-11T02:42:18.482Z,34.10
2022-12-11T02:43:18.457Z,34.40
2022-12-11T02:44:17.446Z,29.20
2022-12-11T02:45:17.452Z,27.10
2022-12-11T02:46:17.459Z,31.40
2022-12-11T02:47:17.424Z,32.00
2022-12-11T02:48:17.394Z,31.70
2022-12-11T02:49:17.384Z,30.90
2022-12-11T02:50:17.366Z,34.20
2022-12-11T02:51:17.382Z,31.50
2022-12-11T02:52:17.352Z,30.20
2022-12-11T02:53:17.360Z,31.00
2022-12-11T02:54:17.346Z,29.50
2022-12-11T02:55:17.320Z,32.30
2022-12-11T02:56:17.352Z,34.50
2022-12-11T02:57:17.300Z,32.90
2022-12-11T02:58:18.262Z,32.80
2022-12-11T02:59:17.254Z,35.50
2022-12-11T03:00:17.266Z,32.90
2022-12-11T03:01:17.270Z,30.90
2022-12-11T03:02:17.295Z,27.00
2022-12-11T03:03:17.222Z,24.90
2022-12-11T03:04:17.185Z,30.60
2022-12-11T03:05:17.203Z,29.10
2022-12-11T03:06:17.203Z,29.90
2022-12-11T03:07:17.152Z,34.20
2022-12-11T03:08:17.156Z,26.10
2022-12-11T03:09:17.169Z,29.20
2022-12-11T03:10:17.149Z,30.20
2022-12-11T03:11:17.114Z,32.20
2022-12-11T03:12:17.093Z,34.70
2022-12-11T03:13:17.107Z,35.80
2022-12-11T03:14:17.072Z,33.20
2022-12-11T03:15:17.093Z,33.30
2022-12-11T03:16:17.133Z,32.10
2022-12-11T03:17:17.043Z,31.80
2022-12-11T03:18:17.013Z,33.80
2022-12-11T03:19:40.151Z,30.30
2022-12-11T03:20:16.993Z,33.50
2022-12-11T03:21:17.079Z,35.40
2022-12-11T03:22:16.963Z,33.20
2022-12-11T03:23:16.944Z,32.90
2022-12-11T03:24:17.005Z,35.30
2022-12-11T03:25:38.964Z,31.70
2022-12-11T03:26:16.915Z,31.00
2022-12-11T03:27:16.937Z,31.40
2022-12-11T03:28:16.936Z,33.90
2022-12-11T03:29:16.942Z,33.00
2022-12-11T03:30:16.962Z,32.00
2022-12-11T03:31:16.935Z,33.50
2022-12-11T03:32:16.854Z,29.80
2022-12-11T03:33:16.854Z,38.50
2022-12-11T03:34:16.824Z,33.30
2022-12-11T03:35:16.822Z,29.90
2022-12-11T03:36:16.805Z,35.20
2022-12-11T03:37:16.811Z,36.40
2022-12-11T03:38:16.774Z,34.50
2022-12-11T03:39:16.764Z,39.10
2022-12-11T03:40:16.743Z,36.40
2022-12-11T03:41:16.754Z,34.20
2022-12-11T03:42:16.734Z,31.60
2022-12-11T03:43:17.729Z,35.80
2022-12-11T03:44:16.692Z,35.50
2022-12-11T03:45:17.693Z,32.60
2022-12-11T03:46:16.726Z,31.90
2022-12-11T03:47:16.666Z,34.90
2022-12-11T03:48:16.657Z,35.00
2022-12-11T03:49:16.633Z,41.00
2022-12-11T04:03:04.078Z,34.40
2022-12-11T04:04:02.707Z,31.80
2022-12-11T04:05:02.645Z,35.70
2022-12-11T04:06:02.636Z,41.20
2022-12-11T04:07:02.616Z,39.50
2022-12-11T04:08:02.692Z,36.20
2022-12-11T04:09:02.607Z,41.30
2022-12-11T04:10:02.614Z,40.00
2022-12-11T04:11:02.576Z,40.20
2022-12-11T04:12:02.555Z,39.10
2022-12-11T04:13:02.571Z,40.40
2022-12-11T04:14:02.546Z,41.80
2022-12-11T04:15:02.534Z,39.10
2022-12-11T04:16:02.632Z,41.60
2022-12-11T04:17:02.492Z,42.20
2022-12-11T04:18:09.993Z,41.90
2022-12-11T04:19:02.463Z,45.90
2022-12-11T04:20:02.458Z,46.10
2022-12-11T04:21:02.444Z,42.90
2022-12-11T04:22:02.458Z,41.10
2022-12-11T04:23:02.417Z,44.00
2022-12-11T04:24:02.405Z,43.40
2022-12-11T04:25:02.393Z,44.10
2022-12-11T04:26:02.533Z,40.00
2022-12-11T04:27:02.411Z,42.20
2022-12-11T04:28:02.364Z,42.80
2022-12-11T04:29:02.354Z,42.30
2022-12-11T04:30:02.361Z,42.00
2022-12-11T04:31:02.352Z,42.70
2022-12-11T04:32:02.324Z,42.10
2022-12-11T04:33:02.324Z,43.50
2022-12-11T04:34:02.276Z,41.80
2022-12-11T04:35:02.264Z,38.00
2022-12-11T04:36:02.261Z,35.70
2022-12-11T04:37:02.254Z,36.80
2022-12-11T04:38:02.256Z,38.00
2022-12-11T04:39:02.224Z,36.40
2022-12-11T04:40:02.203Z,38.80
2022-12-11T04:41:02.196Z,38.30
2022-12-11T04:42:02.231Z,38.80
2022-12-11T04:43:02.185Z,37.30
2022-12-11T04:44:02.166Z,35.90
2022-12-11T04:45:02.153Z,36.10
2022-12-11T04:46:02.190Z,35.30
2022-12-11T04:47:02.133Z,31.30
2022-12-11T04:48:02.085Z,30.40
2022-12-11T04:49:02.092Z,30.50
2022-12-11T04:50:02.072Z,31.10
2022-12-11T04:51:02.066Z,32.20
2022-12-11T04:52:02.065Z,30.80
2022-12-11T04:53:02.055Z,29.90
2022-12-11T04:54:02.032Z,30.50
2022-12-11T04:55:02.002Z,28.90
2022-12-11T04:56:02.013Z,29.00
2022-12-11T04:57:02.009Z,27.50
2022-12-11T04:58:01.985Z,29.30
2022-12-11T04:59:01.963Z,27.40
2022-12-11T05:00:01.997Z,26.50
2022-12-11T05:01:01.941Z,26.50
2022-12-11T05:02:01.975Z,27.70
2022-12-11T05:03:02.995Z,27.40
2022-12-11T05:04:01.903Z,26.30
2022-12-11T05:05:01.922Z,27.20
2022-12-11T05:06:01.876Z,27.10
2022-12-11T05:07:02.904Z,30.20
2022-12-11T05:08:02.870Z,24.30
2022-12-11T05:09:01.841Z,26.70
2022-12-11T05:10:01.833Z,26.30
2022-12-11T05:11:01.804Z,28.80
2022-12-11T05:12:01.815Z,24.90
2022-12-11T05:13:01.797Z,23.90
2022-12-11T05:14:01.773Z,25.00
2022-12-11T05:15:01.794Z,30.60
2022-12-11T05:16:01.777Z,26.90
2022-12-11T05:17:02.763Z,23.70
2022-12-11T05:18:02.770Z,25.20
2022-12-11T05:19:01.723Z,23.70
2022-12-11T05:20:01.713Z,26.50
2022-12-11T05:21:01.728Z,25.30
2022-12-11T05:22:01.794Z,22.90
2022-12-11T05:23:01.683Z,25.30
2022-12-11T05:24:01.658Z,26.00
2022-12-11T05:25:01.699Z,21.40
2022-12-11T05:26:01.687Z,27.10
2022-12-11T05:27:01.652Z,26.40
2022-12-11T05:28:01.697Z,24.80
2022-12-11T05:29:01.703Z,19.80
2022-12-11T05:30:01.622Z,22.70
2022-12-11T05:31:01.710Z,24.20
2022-12-11T05:32:01.657Z,24.90
2022-12-11T05:33:01.662Z,26.40
2022-12-11T05:34:01.636Z,24.10
2022-12-11T05:35:01.539Z,21.30
2022-12-11T05:36:01.540Z,25.40
2022-12-11T05:37:01.553Z,28.00
2022-12-11T05:38:01.603Z,27.50
2022-12-11T05:39:01.589Z,24.60
2022-12-11T05:40:01.468Z,27.50
2022-12-11T05:41:01.482Z,27.20
2022-12-11T05:42:01.453Z,27.90
2022-12-11T05:43:01.523Z,28.80
2022-12-11T05:44:01.505Z,22.80
2022-12-11T05:45:01.410Z,24.60
2022-12-11T05:46:01.413Z,22.90
2022-12-11T05:47:01.483Z,27.60
2022-12-11T05:48:01.464Z,28.80
2022-12-11T05:49:01.358Z,24.00
2022-12-11T05:50:01.445Z,27.60
2022-12-11T05:51:01.342Z,27.00
2022-12-11T05:52:01.303Z,26.10
2022-12-11T05:53:01.331Z,24.50
2022-12-11T05:54:01.294Z,26.80
2022-12-11T05:55:01.374Z,27.30
2022-12-11T05:56:01.275Z,28.00
2022-12-11T05:57:01.262Z,27.20
2022-12-11T05:58:02.347Z,27.10
2022-12-11T05:59:02.323Z,28.10
2022-12-11T06:00:01.222Z,25.40
2022-12-11T06:01:01.193Z,26.00
2022-12-11T06:02:01.428Z,27.30
2022-12-11T06:03:01.327Z,27.30
2022-12-11T06:04:01.158Z,26.80
2022-12-11T06:05:01.249Z,26.20
2022-12-11T06:06:01.123Z,26.20
2022-12-11T06:07:01.113Z,28.50
2022-12-11T06:08:01.195Z,26.70
2022-12-11T06:09:01.153Z,28.20
2022-12-11T06:10:01.111Z,30.50
2022-12-11T06:11:01.174Z,29.80
2022-12-11T06:12:01.045Z,30.60
2022-12-11T06:13:01.054Z,28.30
2022-12-11T06:14:01.084Z,31.30
2022-12-11T06:15:01.013Z,33.20
2022-12-11T06:16:01.113Z,29.00
2022-12-11T06:17:01.015Z,33.70
2022-12-11T06:18:01.011Z,29.60
2022-12-11T06:19:00.973Z,28.30
2022-12-11T06:20:00.975Z,31.10
2022-12-11T06:21:00.952Z,31.30
2022-12-11T06:22:01.057Z,32.70
2022-12-11T06:23:00.954Z,34.60
2022-12-11T06:24:00.904Z,34.40
2022-12-11T06:25:00.892Z,32.10
2022-12-11T06:26:00.873Z,31.80
2022-12-11T06:27:01.855Z,33.50
2022-12-11T06:28:00.874Z,32.60
2022-12-11T06:29:00.833Z,34.40
2022-12-11T06:30:00.883Z,33.90
2022-12-11T06:31:00.893Z,36.50
2022-12-11T06:32:00.898Z,36.40
2022-12-11T06:33:00.853Z,39.40
2022-12-11T06:34:00.818Z,37.50
2022-12-11T06:35:00.831Z,37.30
2022-12-11T06:36:00.787Z,39.80
2022-12-11T06:37:00.755Z,40.40
2022-12-11T06:38:01.794Z,40.40
2022-12-11T06:39:00.728Z,42.70
2022-12-11T06:40:00.774Z,41.50
2022-12-11T06:41:00.768Z,42.40
2022-12-11T06:42:00.707Z,42.60
2022-12-11T06:43:00.705Z,41.80
2022-12-11T06:44:00.703Z,42.30
2022-12-11T06:45:00.704Z,42.40
2022-12-11T06:46:03.872Z,45.00
2022-12-11T06:47:00.658Z,44.60
2022-12-11T06:48:00.655Z,46.40
2022-12-11T06:49:00.632Z,48.80
2022-12-11T06:51:10.811Z,41.60
2022-12-11T06:52:16.639Z,45.00
2022-12-11T06:53:11.842Z,41.80
2022-12-11T06:54:10.780Z,43.40
2022-12-11T06:55:11.111Z,40.40
2022-12-11T06:57:20.965Z,49.30
2022-12-11T06:58:20.974Z,46.90
2022-12-11T06:59:20.956Z,48.10
2022-12-11T07:00:20.966Z,49.00
2022-12-11T07:01:20.993Z,49.20
2022-12-11T07:02:20.950Z,49.90
2022-12-11T07:03:20.939Z,47.50
2022-12-11T07:04:20.893Z,44.00
2022-12-11T07:05:20.865Z,47.30
2022-12-11T07:06:20.886Z,45.70
2022-12-11T07:07:20.835Z,46.70
2022-12-11T07:08:20.891Z,46.30
2022-12-11T07:09:20.832Z,46.10
2022-12-11T07:10:20.808Z,47.80
2022-12-11T07:11:20.787Z,49.30
2022-12-11T07:12:20.826Z,43.20
2022-12-11T07:13:20.799Z,40.30
2022-12-11T07:14:20.755Z,43.80
2022-12-11T07:15:20.754Z,40.90
2022-12-11T07:16:20.772Z,40.30
2022-12-11T07:17:20.722Z,42.90
2022-12-11T07:18:20.751Z,40.70
2022-12-11T07:19:20.694Z,40.40
2022-12-11T07:20:20.743Z,40.20
2022-12-11T07:21:20.684Z,38.80
2022-12-11T07:22:20.670Z,37.70
2022-12-11T07:23:20.644Z,38.80
2022-12-11T07:24:20.654Z,30.40
2022-12-11T07:25:20.638Z,30.30
2022-12-11T07:26:20.619Z,27.20
2022-12-11T07:27:20.604Z,28.70
2022-12-11T07:28:20.594Z,25.00
2022-12-11T07:29:20.576Z,24.90
2022-12-11T07:30:20.564Z,26.30
2022-12-11T07:31:20.601Z,25.80
2022-12-11T07:32:20.637Z,25.90
2022-12-11T07:33:20.547Z,25.40
2022-12-11T07:34:20.514Z,26.00
2022-12-11T07:35:20.494Z,22.70
2022-12-11T07:36:20.486Z,22.40
2022-12-11T07:37:20.475Z,21.70
2022-12-11T07:38:20.488Z,23.30
2022-12-11T07:39:20.476Z,21.90
2022-12-11T07:40:20.438Z,22.40
2022-12-11T07:41:20.434Z,20.90
2022-12-11T07:42:20.417Z,21.80
2022-12-11T07:43:20.423Z,19.20
2022-12-11T07:44:20.403Z,22.20
2022-12-11T07:45:20.384Z,21.40
2022-12-11T07:46:20.426Z,20.00
2022-12-11T07:47:20.359Z,23.30
2022-12-11T07:48:20.367Z,21.20
2022-12-11T07:49:20.347Z,20.40
2022-12-11T07:50:20.313Z,23.40
2022-12-11T07:51:20.307Z,21.70
2022-12-11T07:52:20.296Z,19.30
2022-12-11T07:53:20.276Z,22.90
2022-12-11T07:54:20.412Z,22.30
2022-12-11T07:55:20.245Z,21.30
2022-12-11T07:56:20.233Z,20.80
2022-12-11T07:57:20.256Z,21.20
2022-12-11T07:58:20.225Z,21.20
2022-12-11T07:59:20.216Z,21.50
2022-12-11T08:00:20.202Z,22.40
2022-12-11T08:01:20.221Z,21.90
2022-12-11T08:02:20.235Z,23.00
2022-12-11T08:03:20.148Z,20.40
2022-12-11T08:04:20.159Z,16.90
2022-12-11T08:05:21.125Z,21.00
2022-12-11T08:06:20.126Z,16.30
2022-12-11T08:07:20.104Z,17.70
2022-12-11T08:08:20.161Z,21.20
2022-12-11T08:09:21.525Z,20.50
2022-12-11T08:10:21.067Z,19.60
2022-12-11T08:11:20.044Z,21.40
2022-12-11T08:12:20.045Z,21.50
2022-12-11T08:13:20.043Z,18.60
2022-12-11T08:14:21.028Z,21.30
2022-12-11T08:15:19.996Z,18.50
2022-12-11T08:16:20.044Z,19.40
2022-12-11T08:17:22.343Z,20.10
2022-12-11T08:18:19.966Z,20.90
2022-12-11T08:19:19.954Z,22.10
2022-12-11T08:20:20.123Z,20.20
2022-12-11T08:21:19.964Z,20.30
2022-12-11T08:22:19.914Z,21.00
2022-12-11T08:23:19.902Z,21.10
2022-12-11T08:24:19.895Z,21.10
2022-12-11T08:25:19.894Z,16.80
2022-12-11T08:26:19.855Z,21.20
2022-12-11T08:27:19.873Z,21.80
2022-12-11T08:28:19.854Z,22.10
2022-12-11T08:29:19.864Z,20.00
2022-12-11T08:30:19.815Z,20.60
2022-12-11T08:31:20.878Z,22.40
2022-12-11T08:32:19.796Z,21.80
2022-12-11T08:33:19.804Z,21.20
2022-12-11T08:34:19.763Z,21.20
2022-12-11T08:35:20.773Z,21.10
2022-12-11T08:36:20.733Z,20.20
2022-12-11T08:37:19.845Z,19.90
2022-12-11T08:38:25.022Z,20.20
2022-12-11T08:39:20.705Z,20.00
2022-12-11T08:40:19.697Z,21.50
2022-12-11T08:41:19.701Z,21.00
2022-12-11T08:42:19.665Z,21.50
2022-12-11T08:43:19.657Z,19.80
2022-12-11T08:44:19.646Z,22.50
2022-12-11T08:45:19.648Z,19.80
2022-12-11T08:46:19.716Z,18.80
2022-12-11T08:47:19.616Z,16.40
2022-12-11T08:48:20.645Z,18.10
2022-12-11T08:49:19.622Z,17.90
2022-12-11T08:50:19.604Z,14.30
2022-12-11T08:51:19.572Z,16.20
2022-12-11T08:52:20.545Z,17.40
2022-12-11T08:53:19.538Z,15.20
2022-12-11T08:54:19.537Z,16.90
2022-12-11T08:55:19.554Z,18.30
2022-12-11T08:56:19.499Z,20.00
2022-12-11T08:57:19.514Z,19.40
2022-12-11T08:58:19.486Z,19.30
2022-12-11T08:59:19.629Z,19.90
2022-12-11T09:00:19.453Z,16.20
2022-12-11T09:01:19.494Z,19.20
2022-12-11T09:02:19.473Z,17.20
2022-12-11T09:03:19.405Z,16.90
2022-12-11T09:04:19.471Z,16.80
2022-12-11T09:05:20.434Z,16.60
2022-12-11T09:06:20.397Z,17.20
2022-12-11T09:07:19.362Z,16.10
2022-12-11T09:08:19.368Z,18.50
2022-12-11T09:09:19.395Z,17.10
2022-12-11T09:10:19.445Z,22.30
2022-12-11T09:12:29.554Z,19.40
2022-12-11T09:13:29.516Z,20.70
2022-12-11T09:14:29.571Z,20.20
2022-12-11T09:15:29.670Z,18.00
2022-12-11T09:16:29.473Z,19.70
2022-12-11T09:17:29.483Z,17.30
2022-12-11T09:18:29.511Z,16.30
2022-12-11T09:19:32.431Z,16.20
2022-12-11T09:20:29.558Z,16.20
2022-12-11T09:21:29.403Z,16.20
2022-12-11T09:22:29.403Z,16.10
2022-12-11T09:23:29.428Z,15.10
2022-12-11T09:24:29.436Z,18.30
2022-12-11T09:25:29.373Z,16.90
2022-12-11T09:26:29.452Z,19.00
2022-12-11T09:27:29.454Z,19.70
2022-12-11T09:28:29.349Z,15.20
2022-12-11T09:29:29.323Z,15.90
2022-12-11T09:30:29.321Z,20.40
2022-12-11T09:31:29.283Z,15.50
2022-12-11T09:32:29.290Z,18.10
2022-12-11T09:33:30.274Z,17.60
2022-12-11T09:34:29.734Z,17.10
2022-12-11T09:35:29.348Z,17.30
2022-12-11T09:36:29.218Z,19.30
2022-12-11T09:37:29.214Z,19.30
2022-12-11T09:38:29.213Z,19.50
2022-12-11T09:39:29.231Z,17.40
2022-12-11T09:40:30.195Z,18.20
2022-12-11T09:41:29.154Z,18.90
2022-12-11T09:42:29.184Z,20.40
2022-12-11T09:43:29.123Z,25.60
2022-12-11T09:44:29.124Z,19.50
2022-12-11T09:45:29.114Z,16.50
2022-12-11T09:46:33.704Z,18.80
2022-12-11T09:47:30.085Z,18.60
2022-12-11T10:03:34.470Z,19.00
2022-12-11T10:04:34.440Z,18.80
2022-12-11T10:05:34.477Z,20.40
2022-12-11T10:06:34.425Z,20.20
2022-12-11T10:07:34.421Z,19.60
2022-12-11T10:08:34.419Z,16.60
2022-12-11T10:09:34.379Z,20.10
2022-12-11T10:10:34.389Z,17.80
2022-12-11T10:11:34.360Z,18.60
2022-12-11T10:12:34.364Z,20.00
2022-12-11T10:13:34.350Z,21.20
2022-12-11T10:14:34.428Z,20.20
2022-12-11T10:15:34.384Z,20.30
2022-12-11T10:16:34.301Z,21.30
2022-12-11T10:17:34.301Z,21.40
2022-12-11T10:18:34.294Z,21.20
2022-12-11T10:19:34.341Z,22.00
2022-12-11T10:20:34.282Z,20.70
2022-12-11T10:21:34.239Z,20.40
2022-12-11T10:22:34.236Z,20.30
2022-12-11T10:23:34.220Z,21.40
2022-12-11T10:25:09.358Z,18.30
2022-12-11T10:25:35.202Z,18.50
2022-12-11T10:26:34.190Z,16.70
2022-12-11T10:27:34.169Z,16.20
2022-12-11T10:28:34.161Z,16.10
2022-12-11T10:29:34.163Z,14.00
2022-12-11T10:30:34.711Z,15.30
2022-12-11T10:31:34.189Z,16.80
2022-12-11T10:32:34.133Z,15.10
2022-12-11T10:33:34.080Z,15.90
2022-12-11T10:34:34.139Z,17.10
2022-12-11T10:35:34.084Z,15.70
2022-12-11T10:36:34.052Z,17.30
2022-12-11T10:37:34.029Z,16.90
2022-12-11T10:38:34.030Z,17.20
2022-12-11T10:39:34.019Z,15.40
2022-12-11T10:40:34.010Z,16.50
2022-12-11T10:41:33.984Z,14.90
2022-12-11T10:42:33.960Z,16.00
2022-12-11T10:43:33.959Z,16.80
2022-12-11T10:44:33.951Z,17.20
2022-12-11T10:45:42.641Z,14.30
2022-12-11T10:46:41.475Z,16.20
2022-12-11T10:47:33.898Z,17.00
2022-12-11T10:48:45.414Z,15.30
2022-12-11T10:49:33.892Z,14.60
2022-12-11T10:50:42.577Z,15.20
2022-12-11T10:51:41.355Z,15.20
2022-12-11T10:52:41.353Z,15.10
2022-12-11T10:53:33.823Z,15.50
2022-12-11T10:54:41.339Z,15.50
2022-12-11T10:55:42.492Z,15.80
2022-12-11T10:56:41.294Z,12.40
2022-12-11T10:57:41.311Z,13.50
2022-12-11T10:58:41.276Z,14.20
2022-12-11T10:59:41.275Z,13.50
2022-12-11T11:00:42.465Z,15.00
2022-12-11T11:01:41.437Z,14.40
2022-12-11T11:02:41.273Z,15.00
2022-12-11T11:03:42.225Z,15.60
2022-12-11T11:04:41.212Z,13.70
2022-12-11T11:05:33.702Z,13.90
2022-12-11T11:06:33.661Z,14.90
2022-12-11T11:07:33.661Z,14.50
2022-12-11T11:08:33.664Z,13.60
2022-12-11T11:09:33.633Z,13.80
2022-12-11T11:10:33.633Z,14.70
2022-12-11T11:11:34.250Z,13.50
2022-12-11T11:12:33.608Z,14.80
2022-12-11T11:13:33.589Z,14.50
2022-12-11T11:14:33.750Z,12.30
2022-12-11T11:15:33.574Z,13.10
2022-12-11T11:16:33.611Z,13.90
2022-12-11T11:17:35.343Z,13.50
2022-12-11T11:18:33.531Z,14.00
2022-12-11T11:19:33.504Z,14.50
2022-12-11T11:20:33.523Z,12.50
2022-12-11T11:21:33.490Z,11.90
2022-12-11T11:22:33.472Z,11.60
2022-12-11T11:23:33.475Z,9.80
2022-12-11T11:24:33.462Z,11.90
2022-12-11T11:25:33.446Z,12.80
2022-12-11T11:27:04.283Z,11.40
2022-12-11T11:27:34.439Z,14.00
2022-12-11T11:28:33.494Z,12.90
2022-12-11T11:29:33.387Z,12.60
2022-12-11T11:30:33.408Z,9.60
2022-12-11T11:31:33.382Z,12.40
2022-12-11T11:32:33.383Z,13.10
2022-12-11T11:33:33.331Z,12.60
2022-12-11T11:34:33.334Z,12.20
2022-12-11T11:35:33.312Z,13.00
2022-12-11T11:36:33.293Z,12.80
2022-12-11T11:37:33.273Z,12.80
2022-12-11T11:38:33.274Z,14.50
2022-12-11T11:39:33.253Z,13.60
2022-12-11T11:40:33.275Z,12.20
2022-12-11T11:41:33.246Z,12.20
2022-12-11T11:42:33.218Z,13.20
2022-12-11T11:43:33.203Z,14.90
2022-12-11T11:44:33.196Z,12.90
2022-12-11T11:45:33.205Z,12.00
2022-12-11T11:46:33.200Z,13.10
2022-12-11T11:47:33.143Z,13.40
2022-12-11T11:48:33.197Z,15.00
2022-12-11T11:49:33.131Z,14.20
2022-12-11T11:50:33.131Z,14.20
2022-12-11T11:51:33.113Z,15.10
2022-12-11T11:52:33.103Z,15.30
2022-12-11T11:53:33.083Z,15.80
2022-12-11T11:54:33.067Z,15.10
2022-12-11T11:55:33.064Z,15.70
2022-12-11T11:56:33.035Z,16.70
2022-12-11T11:57:33.574Z,15.20
2022-12-11T11:58:33.030Z,16.90
2022-12-11T11:59:33.003Z,16.20
2022-12-11T12:00:34.098Z,13.30
2022-12-11T12:01:32.963Z,14.30
2022-12-11T12:02:33.050Z,12.20
2022-12-11T12:03:32.983Z,16.50
2022-12-11T12:04:32.974Z,13.90
2022-12-11T12:05:32.935Z,15.00
2022-12-11T12:06:32.940Z,16.40
2022-12-11T12:07:32.921Z,16.10
2022-12-11T12:08:32.885Z,15.40
2022-12-11T12:09:32.962Z,13.70
2022-12-11T12:10:32.887Z,13.20
2022-12-11T12:11:33.038Z,14.10
2022-12-11T12:12:34.283Z,16.70
2022-12-11T12:13:49.930Z,17.70
2022-12-11T12:15:33.835Z,14.10
2022-12-11T12:17:33.821Z,12.40
2022-12-11T12:18:32.784Z,12.90
2022-12-11T12:19:32.784Z,11.60
2022-12-11T12:20:32.844Z,10.60
2022-12-11T12:21:32.734Z,11.70
2022-12-11T12:22:32.713Z,12.80
2022-12-11T12:23:36.631Z,12.50
2022-12-11T12:24:32.695Z,12.50
2022-12-11T12:25:32.796Z,13.30
2022-12-11T12:26:32.742Z,14.00
2022-12-11T12:28:33.635Z,11.70
2022-12-11T12:29:32.851Z,13.40
2022-12-11T12:30:32.726Z,14.00
2022-12-11T12:31:32.653Z,11.80
2022-12-11T12:32:32.692Z,13.00
2022-12-11T12:33:32.692Z,13.30
2022-12-11T12:34:32.554Z,13.20
2022-12-11T12:35:32.653Z,14.20
2022-12-11T12:36:34.583Z,12.90
2022-12-11T12:37:32.606Z,12.80
2022-12-11T12:38:32.614Z,13.20
2022-12-11T12:39:32.579Z,11.90
2022-12-11T12:40:32.507Z,12.70
2022-12-11T12:41:54.589Z,12.20
2022-12-11T12:42:32.467Z,14.60
2022-12-11T12:43:32.517Z,14.00
2022-12-11T12:44:32.460Z,12.50
2022-12-11T12:45:32.483Z,13.80
2022-12-11T12:46:32.468Z,10.40
2022-12-11T12:47:32.416Z,14.40
2022-12-11T12:48:33.425Z,13.60
2022-12-11T12:49:32.365Z,12.20
2022-12-11T12:50:32.416Z,13.60
2022-12-11T12:51:32.416Z,14.60
2022-12-11T12:52:32.353Z,12.70
2022-12-11T12:53:32.318Z,10.60
2022-12-11T12:54:33.351Z,11.90
2022-12-11T12:55:32.364Z,13.00
2022-12-11T12:56:32.287Z,11.70
2022-12-11T12:57:32.344Z,10.50
2022-12-11T12:58:32.345Z,12.60
2022-12-11T12:59:32.245Z,13.30
2022-12-11T13:00:32.297Z,12.60
2022-12-11T13:01:32.258Z,12.00
2022-12-11T13:02:32.341Z,11.80
2022-12-11T13:03:32.275Z,10.00
2022-12-11T13:04:54.872Z,11.50
2022-12-11T13:05:33.177Z,12.60
2022-12-11T13:06:32.195Z,11.20
2022-12-11T13:07:32.204Z,13.00
2022-12-11T13:08:32.275Z,12.10
2022-12-11T13:09:32.229Z,11.40
2022-12-11T13:10:32.095Z,11.20
2022-12-11T13:11:32.165Z,11.80
2022-12-11T13:12:32.135Z,10.40
2022-12-11T13:13:32.064Z,10.10
2022-12-11T13:14:32.156Z,12.30
2022-12-11T13:15:32.156Z,13.90
2022-12-11T13:16:32.162Z,14.80
2022-12-11T13:17:32.048Z,13.20
2022-12-11T13:18:34.045Z,12.90
2022-12-11T13:19:31.986Z,14.40
2022-12-11T13:20:32.076Z,13.00
2022-12-11T13:21:32.097Z,12.70
2022-12-11T13:22:31.954Z,12.80
2022-12-11T13:23:33.987Z,10.90
2022-12-11T13:24:31.939Z,10.20
2022-12-11T13:25:31.928Z,11.90
2022-12-11T13:26:31.957Z,11.90
2022-12-11T13:27:31.930Z,12.90